Time;durP1;ratioP1;P1;durP2;ratioP2;P2;SDS_P1;SDS_P2;PMS_P1;PMS_P2;Temp;Humidity;BMP_temperature;BMP_pressure;BME280_temperature;BME280_humidity;BME280_pressure;Samples;Min_cycle;Max_cycle;Signal;HPM_P1;HPM_P2
2023/02/14 00:02:01;;;;;;;7.60;3.55;;;;;;;3.82;87.14;100623.05;1665550;86;21036;-68
2023/02/14 00:04:30;;;;;;;6.87;3.75;;;;;;;3.83;87.03;100622.05;1665744;86;21504;-64
2023/02/14 00:07:01;;;;;;;7.12;3.35;;;;;;;3.83;86.94;100617.98;1665488;86;21037;-66
2023/02/14 00:09:30;;;;;;;9.43;4.20;;;;;;;3.83;86.89;100616.63;1665624;86;21464;-64
2023/02/14 00:12:01;;;;;;;6.37;2.98;;;;;;;3.85;86.85;100614.62;1665681;86;21052;-67
2023/02/14 00:17:17;;;;;;;6.35;3.30;;;;;;;3.83;86.73;100612.56;1665357;86;21088;-67
2023/02/14 00:19:46;;;;;;;7.62;3.67;;;;;;;3.85;86.73;100601.08;1665768;86;21519;-66
2023/02/14 00:22:15;;;;;;;6.50;2.92;;;;;;;3.86;86.59;100610.06;1665496;86;21020;-66
2023/02/14 00:24:44;;;;;;;5.28;3.02;;;;;;;3.86;86.50;100601.43;1665561;86;21504;-67
2023/02/14 00:27:16;;;;;;;4.85;2.87;;;;;;;3.86;86.52;100605.50;1665492;86;21056;-67
2023/02/14 00:29:47;;;;;;;4.80;2.83;;;;;;;3.89;86.48;100604.34;1665316;86;21111;-64
2023/02/14 00:32:16;;;;;;;6.78;3.15;;;;;;;3.88;86.40;100592.64;1607249;89;21096;-66
2023/02/14 00:34:45;;;;;;;5.67;2.75;;;;;;;3.90;86.30;100587.08;1607316;89;21091;-65
2023/02/14 00:37:16;;;;;;;5.28;2.85;;;;;;;3.90;86.21;100597.45;1607199;89;21068;-67
2023/02/14 00:39:46;;;;;;;6.60;2.77;;;;;;;3.88;86.11;100595.36;1607085;89;21083;-65
2023/02/14 00:42:15;;;;;;;5.62;2.77;;;;;;;3.89;86.04;100588.93;1606972;89;21095;-68
2023/02/14 00:44:46;;;;;;;4.65;2.42;;;;;;;3.89;86.01;100578.09;1606894;89;21551;-68
2023/02/14 00:47:15;;;;;;;6.20;2.95;;;;;;;3.92;85.94;100571.05;1606890;89;21424;-65
2023/02/14 00:49:44;;;;;;;6.37;3.02;;;;;;;3.92;85.84;100575.11;1607316;89;21315;-66
2023/02/14 00:52:13;;;;;;;6.20;2.90;;;;;;;3.93;85.76;100582.73;1607067;89;21580;-66
2023/02/14 00:54:43;;;;;;;5.30;2.80;;;;;;;3.93;85.74;100586.30;1607015;89;21499;-67
2023/02/14 00:57:15;;;;;;;6.37;2.72;;;;;;;3.92;85.69;100588.66;1644983;86;21060;-65
2023/02/14 00:59:44;;;;;;;5.92;2.75;;;;;;;3.92;85.62;100566.13;1665248;86;21140;-65
2023/02/14 01:02:14;;;;;;;6.33;2.80;;;;;;;3.91;85.53;100562.56;1665511;86;21477;-65
2023/02/14 01:04:45;;;;;;;8.95;3.00;;;;;;;3.91;85.51;100581.53;1665452;86;21095;-66
2023/02/14 01:07:13;;;;;;;7.83;2.70;;;;;;;3.92;85.47;100587.31;1665466;86;21243;-68
2023/02/14 01:09:44;;;;;;;5.92;2.72;;;;;;;3.92;85.36;100589.16;1665350;86;21519;-67
2023/02/14 01:12:13;;;;;;;7.03;2.85;;;;;;;3.93;85.35;100582.73;1665613;86;21116;-67
2023/02/14 01:14:43;;;;;;;5.78;2.80;;;;;;;3.93;85.29;100570.04;1665690;86;21052;-67
2023/02/14 01:17:15;;;;;;;5.42;2.80;;;;;;;3.93;85.27;100568.69;1665515;86;21091;-66
2023/02/14 01:19:44;;;;;;;4.35;2.52;;;;;;;3.94;85.18;100560.91;1665448;86;21424;-65
2023/02/14 01:22:12;;;;;;;4.55;2.62;;;;;;;3.96;85.14;100556.69;1665501;86;21016;-67
2023/02/14 01:24:41;;;;;;;6.00;2.70;;;;;;;3.96;85.01;100558.89;1665401;86;21523;-67
2023/02/14 01:27:10;;;;;;;6.55;2.90;;;;;;;3.95;84.92;100557.19;1665905;86;21053;-67
2023/02/14 01:29:41;;;;;;;7.70;3.02;;;;;;;3.95;84.95;100550.41;1665391;86;21100;-66
2023/02/14 01:32:10;;;;;;;5.85;2.60;;;;;;;3.94;84.97;100551.41;1665464;86;21027;-65
2023/02/14 01:34:40;;;;;;;5.10;3.02;;;;;;;3.94;84.99;100542.44;1665403;86;21095;-67
2023/02/14 01:37:10;;;;;;;4.90;2.80;;;;;;;3.94;85.01;100535.16;1665739;86;21514;-69
2023/02/14 01:39:41;;;;;;;5.87;3.37;;;;;;;3.93;85.01;100537.51;1665432;86;21114;-67
2023/02/14 01:42:10;;;;;;;6.10;2.92;;;;;;;3.92;84.98;100522.25;1665481;86;21151;-64
2023/02/14 01:44:48;;;;;;;7.25;3.02;;;;;;;3.91;84.99;100521.91;1665684;86;21104;-67
2023/02/14 01:47:17;;;;;;;7.25;3.08;;;;;;;3.91;84.95;100512.92;1665464;86;21437;-66
2023/02/14 01:49:52;;;;;;;5.92;2.92;;;;;;;3.89;84.94;100506.27;1665453;86;21571;-66
2023/02/14 01:52:34;;;;;;;8.70;3.50;;;;;;;3.90;84.92;100494.92;1665545;86;21056;-66
2023/02/14 01:55:08;;;;;;;8.08;3.20;;;;;;;3.89;84.88;100499.98;1661251;86;21533;-66
2023/02/14 01:57:49;;;;;;;7.70;3.58;;;;;;;3.89;84.90;100492.70;1665470;86;21482;-65
2023/02/14 02:03:08;;;;;;;7.17;3.52;;;;;;;3.91;84.77;100475.82;1665708;86;21456;-66
2023/02/14 02:05:41;;;;;;;6.12;2.83;;;;;;;3.91;84.72;100482.59;1665749;86;21518;-65
2023/02/14 02:08:09;;;;;;;5.55;3.05;;;;;;;3.92;84.66;100471.25;1665391;86;21099;-66
2023/02/14 02:10:38;;;;;;;8.30;3.65;;;;;;;3.91;84.60;100477.18;1665726;86;21448;-65
2023/02/14 02:13:10;;;;;;;9.35;4.03;;;;;;;3.91;84.56;100478.53;1665601;86;21040;-66
2023/02/14 02:15:48;;;;;;;7.87;3.08;;;;;;;3.91;84.57;100486.66;1665379;86;21048;-65
2023/02/14 02:18:44;;;;;;;8.45;3.75;;;;;;;3.89;84.50;100487.28;1665375;86;21060;-67
2023/02/14 02:21:21;;;;;;;9.20;3.72;;;;;;;3.91;84.48;100489.38;1665465;86;21563;-67
2023/02/14 02:23:59;;;;;;;;;;;;;;;3.91;84.46;100487.17;1667814;86;21508;-68
2023/02/14 02:26:59;;;;;;;7.62;4.05;;;;;;;3.89;84.44;100484.58;1665425;86;20252;-66
2023/02/14 02:29:56;;;;;;;9.03;3.70;;;;;;;3.88;84.50;100482.88;1665320;86;21112;-66
2023/02/14 02:32:46;;;;;;;7.80;3.55;;;;;;;3.89;84.52;100483.73;1665632;86;21540;-66
2023/02/14 02:35:27;;;;;;;7.47;3.67;;;;;;;3.90;84.48;100473.23;1665530;86;21048;-65
2023/02/14 02:38:22;;;;;;;5.90;3.17;;;;;;;3.91;84.42;100475.82;1665412;86;21468;-64
2023/02/14 02:41:15;;;;;;;6.75;3.40;;;;;;;3.90;84.36;100468.70;1665465;86;21069;-66
2023/02/14 02:43:58;;;;;;;6.03;2.75;;;;;;;3.90;84.32;100465.10;1647868;85;21073;-66
2023/02/14 02:46:56;;;;;;;7.35;2.85;;;;;;;3.89;84.32;100460.69;1647387;87;21449;-66
2023/02/14 02:53:05;;;;;;;9.35;3.30;;;;;;;3.87;84.35;100477.10;1623256;87;21042;-64
2023/02/14 02:58:41;;;;;;;6.80;2.67;;;;;;;3.89;84.32;100480.52;1647274;87;21057;-66
2023/02/14 03:01:30;;;;;;;6.30;3.40;;;;;;;3.88;84.28;100487.44;1622374;87;21088;-66
2023/02/14 03:06:50;;;;;;;7.58;2.98;;;;;;;3.87;84.39;100489.30;1647345;87;21574;-65
2023/02/14 03:09:30;;;;;;;6.15;2.80;;;;;;;3.87;84.44;100498.78;1625401;87;21013;-67
2023/02/14 03:12:32;;;;;;;5.35;3.00;;;;;;;3.86;84.46;100505.21;1647766;87;21511;-65
2023/02/14 03:15:12;;;;;;;4.95;2.98;;;;;;;3.86;84.48;100510.63;1644287;87;21077;-67
2023/02/14 03:21:39;;;;;;;6.53;2.75;;;;;;;3.87;84.51;100525.89;1647400;87;21049;-63
2023/02/14 03:24:42;;;;;;;4.67;2.83;;;;;;;3.87;84.57;100516.41;1647247;87;21477;-65
2023/02/14 03:27:38;;;;;;;4.95;2.30;;;;;;;3.87;84.61;100519.11;1647559;86;21485;-67
2023/02/14 03:30:15;;;;;;;4.22;2.50;;;;;;;3.87;84.79;100518.26;1647479;86;21094;-67
2023/02/14 03:33:01;;;;;;;5.78;2.75;;;;;;;3.87;85.13;100531.81;1647366;87;21524;-66
2023/02/14 03:35:54;;;;;;;4.90;2.87;;;;;;;3.83;85.72;100532.62;1647477;86;21010;-65
2023/02/14 03:38:46;;;;;;;5.53;3.08;;;;;;;3.79;86.24;100531.21;1647466;87;21113;-65
2023/02/14 03:41:26;;;;;;;3.42;2.20;;;;;;;3.76;86.77;100527.45;1647430;87;21622;-67
2023/02/14 03:44:00;;;;;;;4.75;2.47;;;;;;;3.74;87.20;100528.95;1647331;86;21472;-67
2023/02/14 03:46:44;;;;;;;4.83;2.20;;;;;;;3.72;87.66;100534.17;1623853;87;21140;-67
2023/02/14 03:49:17;;;;;;;5.50;2.65;;;;;;;3.70;87.94;100532.97;1647242;87;21021;-66
2023/02/14 03:51:48;;;;;;;3.98;2.12;;;;;;;3.67;88.32;100528.36;1647041;87;21120;-67
2023/02/14 03:54:16;;;;;;;4.60;2.45;;;;;;;3.66;88.58;100543.76;1647485;87;21533;-68
2023/02/14 03:57:02;;;;;;;5.72;2.05;;;;;;;3.66;88.89;100540.20;1647320;87;21543;-65
2023/02/14 03:59:31;;;;;;;4.40;1.82;;;;;;;3.66;89.09;100540.20;1647386;87;21563;-66
2023/02/14 04:02:11;;;;;;;4.90;2.20;;;;;;;3.63;89.27;100530.52;1647399;87;21452;-67
2023/02/14 04:04:43;;;;;;;4.03;1.90;;;;;;;3.61;89.47;100526.25;1647490;87;21052;-66
2023/02/14 04:07:18;;;;;;;5.33;2.10;;;;;;;3.57;89.69;100531.11;1647728;87;21430;-67
2023/02/14 04:09:47;;;;;;;4.62;2.20;;;;;;;3.54;89.86;100529.20;1647176;87;21469;-66
2023/02/14 04:12:18;;;;;;;7.05;2.15;;;;;;;3.53;90.04;100518.02;1647604;87;21089;-67
2023/02/14 04:14:48;;;;;;;6.83;2.30;;;;;;;3.52;90.20;100524.43;1647408;87;21077;-67
2023/02/14 04:20:07;;;;;;;7.70;3.25;;;;;;;3.44;90.61;100513.84;1620075;88;21895;-68
2023/02/14 04:22:36;;;;;;;6.42;3.50;;;;;;;3.39;90.84;100520.71;1619830;88;21104;-67
2023/02/14 04:25:06;;;;;;;8.78;3.70;;;;;;;3.38;91.01;100517.66;1619790;88;21046;-67
2023/02/14 04:27:36;;;;;;;9.33;4.03;;;;;;;3.37;91.18;100514.59;1619727;88;21481;-64
2023/02/14 04:30:07;;;;;;;8.30;3.50;;;;;;;3.35;91.35;100517.45;1619808;88;21523;-65
2023/02/14 04:32:37;;;;;;;7.40;2.83;;;;;;;3.33;91.52;100537.05;1619895;88;21097;-66
2023/02/14 04:35:06;;;;;;;5.40;2.90;;;;;;;3.33;91.72;100540.26;1629274;87;21086;-67
2023/02/14 04:37:35;;;;;;;5.62;2.45;;;;;;;3.32;91.78;100542.11;1647378;87;21603;-67
2023/02/14 04:40:06;;;;;;;4.70;2.45;;;;;;;3.32;91.94;100546.67;1647338;87;21505;-65
2023/02/14 04:42:35;;;;;;;4.05;2.55;;;;;;;3.33;92.04;100551.09;1647332;86;21073;-65
2023/02/14 04:45:09;;;;;;;5.90;2.30;;;;;;;3.32;92.13;100547.53;1647418;87;21061;-67
2023/02/14 04:47:38;;;;;;;5.10;2.15;;;;;;;3.35;92.23;100558.57;1647665;86;21492;-65
2023/02/14 04:50:29;;;;;;;3.90;1.72;;;;;;;3.35;92.23;100562.63;1647362;86;21493;-65
2023/02/14 04:52:59;;;;;;;4.20;2.25;;;;;;;3.37;92.20;100576.88;1710908;84;21035;-67
2023/02/14 04:55:28;;;;;;;5.05;2.00;;;;;;;3.37;92.18;100573.67;1711323;84;21493;-65
2023/02/14 04:57:56;;;;;;;3.52;1.60;;;;;;;3.40;92.15;100579.30;1711067;84;21011;-65
2023/02/14 05:00:26;;;;;;;3.12;1.55;;;;;;;3.39;91.97;100577.08;1711129;84;21075;-67
2023/02/14 05:02:55;;;;;;;2.95;1.62;;;;;;;3.40;91.96;100590.98;1710985;84;21035;-64
2023/02/14 05:05:24;;;;;;;3.05;1.67;;;;;;;3.40;91.83;100590.98;1710837;84;21038;-64
2023/02/14 05:07:53;;;;;;;6.20;1.85;;;;;;;3.39;91.72;100601.46;1711059;84;21039;-65
2023/02/14 05:10:23;;;;;;;3.60;1.80;;;;;;;3.39;91.61;100606.87;1711212;84;21055;-65
2023/02/14 05:12:52;;;;;;;3.62;1.98;;;;;;;3.39;91.54;100607.38;1711247;83;21066;-67
2023/02/14 05:15:21;;;;;;;7.83;2.25;;;;;;;3.38;91.47;100602.46;1711197;84;21396;-70
2023/02/14 05:17:51;;;;;;;3.98;1.87;;;;;;;3.39;91.40;100587.06;1710820;84;21478;-66
2023/02/14 05:20:20;;;;;;;6.45;2.08;;;;;;;3.39;91.21;100603.31;1711050;83;21505;-65
2023/02/14 05:22:49;;;;;;;7.00;2.12;;;;;;;3.37;91.10;100602.11;1710879;83;21935;-67
2023/02/14 05:25:18;;;;;;;3.45;1.70;;;;;;;3.37;91.07;100600.75;1710935;84;21035;-67
2023/02/14 05:27:47;;;;;;;6.62;2.15;;;;;;;3.37;91.12;100584.50;1710831;84;21026;-65
2023/02/14 05:30:17;;;;;;;6.28;2.00;;;;;;;3.37;91.06;100590.42;1710928;84;21058;-66
2023/02/14 05:32:47;;;;;;;6.53;2.12;;;;;;;3.37;91.09;100593.13;1710936;83;21026;-66
2023/02/14 05:35:16;;;;;;;5.30;2.52;;;;;;;3.38;91.08;100593.48;1710857;84;21070;-66
2023/02/14 05:37:45;;;;;;;4.62;2.12;;;;;;;3.40;91.05;100588.27;1711101;84;21434;-66
2023/02/14 05:40:15;;;;;;;4.55;2.10;;;;;;;3.41;91.10;100591.33;1710972;84;21501;-67
2023/02/14 05:42:43;;;;;;;3.92;2.17;;;;;;;3.43;91.14;100592.54;1710969;84;21002;-67
2023/02/14 05:45:14;;;;;;;5.90;2.30;;;;;;;3.44;91.05;100586.13;1711142;83;21066;-67
2023/02/14 05:47:44;;;;;;;5.70;2.60;;;;;;;3.45;90.99;100587.33;1711165;84;21030;-66
2023/02/14 05:50:13;;;;;;;3.60;2.42;;;;;;;3.43;90.81;100596.60;1711179;84;21454;-66
2023/02/14 05:52:41;;;;;;;3.45;2.05;;;;;;;3.41;90.49;100591.83;1712424;83;21066;-67
2023/02/14 05:55:10;;;;;;;5.83;3.12;;;;;;;3.40;90.35;100596.40;1705368;84;21514;-65
2023/02/14 05:57:39;;;;;;;4.42;2.20;;;;;;;3.40;90.11;100595.05;1720164;83;21096;-67
2023/02/14 06:00:10;;;;;;;6.37;2.62;;;;;;;3.39;89.93;100601.46;1705563;84;21415;-67
2023/02/14 06:02:40;;;;;;;6.90;2.60;;;;;;;3.38;89.73;100605.67;1736259;83;21031;-66
2023/02/14 06:05:09;;;;;;;5.12;2.83;;;;;;;3.39;89.74;100610.08;1736191;83;21015;-65
2023/02/14 06:07:39;;;;;;;4.60;2.20;;;;;;;3.39;89.58;100613.65;1736094;82;21032;-66
2023/02/14 06:10:09;;;;;;;4.87;2.60;;;;;;;3.40;89.48;100609.94;1736285;83;21592;-66
2023/02/14 06:12:37;;;;;;;8.63;2.98;;;;;;;3.42;89.16;100616.56;1736172;83;21439;-66
2023/02/14 06:15:09;;;;;;;6.22;2.60;;;;;;;3.45;89.19;100617.63;1736207;82;21337;-66
2023/02/14 06:17:38;;;;;;;7.03;2.80;;;;;;;3.48;89.10;100625.45;1736133;82;21055;-66
2023/02/14 06:20:08;;;;;;;6.83;2.20;;;;;;;3.50;88.99;100619.39;1736318;83;21423;-67
2023/02/14 06:22:38;;;;;;;6.00;1.90;;;;;;;3.54;88.91;100624.02;1736203;83;21089;-68
2023/02/14 06:25:08;;;;;;;4.58;1.92;;;;;;;3.54;88.76;100622.66;1736513;83;20988;-64
2023/02/14 06:27:38;;;;;;;4.85;2.30;;;;;;;3.56;88.52;100613.39;1736122;82;21019;-66
2023/02/14 06:30:10;;;;;;;6.55;2.08;;;;;;;3.59;88.49;100614.95;1736131;82;21027;-67
2023/02/14 06:32:41;;;;;;;5.62;2.27;;;;;;;3.60;88.37;100616.66;1736197;82;21087;-66
2023/02/14 06:35:10;;;;;;;4.97;2.20;;;;;;;3.64;88.39;100624.84;1736449;82;20992;-68
2023/02/14 06:37:41;;;;;;;4.33;2.17;;;;;;;3.66;88.11;100622.34;1736249;82;21087;-67
2023/02/14 06:40:11;;;;;;;5.80;2.30;;;;;;;3.67;87.82;100625.90;1736197;83;21063;-66
2023/02/14 06:42:40;;;;;;;4.20;1.82;;;;;;;3.70;87.71;100633.73;1736199;83;21044;-67
2023/02/14 06:45:09;;;;;;;7.87;2.98;;;;;;;3.74;87.74;100633.79;1736148;82;20988;-66
2023/02/14 06:47:38;;;;;;;5.75;2.12;;;;;;;3.78;87.62;100632.48;1736195;83;21004;-66
2023/02/14 06:50:10;;;;;;;5.50;2.00;;;;;;;3.79;87.30;100640.97;1736109;83;21518;-68
2023/02/14 06:52:41;;;;;;;7.17;2.83;;;;;;;3.79;87.00;100629.63;1736199;83;21290;-67
2023/02/14 06:55:12;;;;;;;3.90;2.30;;;;;;;3.80;86.79;100634.05;1736174;82;21541;-67
2023/02/14 06:57:41;;;;;;;6.37;2.15;;;;;;;3.81;86.77;100625.41;1735895;83;21502;-67
2023/02/14 07:00:13;;;;;;;4.90;2.25;;;;;;;3.83;86.57;100622.05;1736212;82;21098;-67
2023/02/14 07:02:42;;;;;;;6.12;2.10;;;;;;;3.85;86.37;100621.41;1736346;83;20995;-67
2023/02/14 07:05:11;;;;;;;6.78;2.35;;;;;;;3.87;86.16;100619.90;1736076;83;21114;-67
2023/02/14 07:07:39;;;;;;;7.00;3.22;;;;;;;3.87;85.95;100630.24;1736179;82;21063;-66
2023/02/14 07:10:09;;;;;;;8.08;3.00;;;;;;;3.89;85.75;100628.23;1736203;83;21015;-69
2023/02/14 07:12:38;;;;;;;7.58;3.33;;;;;;;3.87;85.28;100608.55;1736354;83;21015;-67
2023/02/14 07:15:14;;;;;;;8.80;3.33;;;;;;;3.87;84.89;100616.69;1736304;82;20988;-68
2023/02/14 07:17:44;;;;;;;6.62;2.40;;;;;;;3.89;84.87;100630.95;1736179;83;21064;-65
2023/02/14 07:20:13;;;;;;;8.45;2.95;;;;;;;3.91;84.51;100634.39;1736444;83;21415;-66
2023/02/14 07:22:43;;;;;;;7.62;2.50;;;;;;;3.93;84.22;100617.98;1735946;82;21024;-68
2023/02/14 07:25:13;;;;;;;4.97;2.00;;;;;;;3.93;83.58;100620.69;1736334;82;21063;-65
2023/02/14 07:27:42;;;;;;;6.03;2.10;;;;;;;3.95;83.27;100626.81;1736371;82;21027;-68
2023/02/14 07:30:13;;;;;;;8.40;2.47;;;;;;;3.97;82.59;100625.66;1736126;82;21090;-66
2023/02/14 07:32:41;;;;;;;4.12;1.80;;;;;;;4.01;82.37;100628.42;1736095;83;21446;-67
2023/02/14 07:35:11;;;;;;;6.05;1.87;;;;;;;4.03;81.52;100626.42;1736109;83;21082;-67
2023/02/14 07:37:41;;;;;;;9.60;2.83;;;;;;;4.06;81.09;100627.98;1736032;82;21036;-66
2023/02/14 07:40:11;;;;;;;4.67;2.08;;;;;;;4.09;80.80;100626.31;1736205;83;21493;-65
2023/02/14 07:42:42;;;;;;;6.50;2.02;;;;;;;4.16;80.54;100630.14;1736040;82;21008;-66
2023/02/14 07:45:11;;;;;;;7.58;2.20;;;;;;;4.22;80.24;100619.19;1736243;82;21487;-68
2023/02/14 07:47:41;;;;;;;9.30;2.72;;;;;;;4.26;79.80;100611.09;1733257;83;21044;-67
2023/02/14 07:50:10;;;;;;;6.03;2.20;;;;;;;4.32;79.31;100618.62;1736548;82;21019;-67
2023/02/14 07:52:39;;;;;;;4.50;1.90;;;;;;;4.36;79.03;100622.73;1736331;82;21044;-66
2023/02/14 07:55:10;;;;;;;3.47;1.60;;;;;;;4.37;78.05;100620.37;1736402;83;21514;-70
2023/02/14 07:57:41;;;;;;;7.80;2.20;;;;;;;4.36;77.34;100631.73;1736144;83;21020;-69
2023/02/14 08:00:13;;;;;;;3.17;1.20;;;;;;;4.35;77.17;100629.17;1736225;83;21020;-70
2023/02/14 08:02:43;;;;;;;4.33;1.60;;;;;;;4.35;76.28;100622.39;1736150;82;21113;-66
2023/02/14 08:05:13;;;;;;;6.08;1.80;;;;;;;4.36;76.26;100621.38;1736329;83;21011;-67
2023/02/14 08:07:43;;;;;;;5.80;1.87;;;;;;;4.40;75.86;100614.14;1736288;82;21074;-68
2023/02/14 08:10:11;;;;;;;9.30;1.85;;;;;;;4.50;75.54;100638.50;1736429;83;21047;-67
2023/02/14 08:12:57;;;;;;;3.95;1.77;;;;;;;4.55;74.91;100620.40;1736355;82;21043;-69
2023/02/14 08:18:21;;;;;;;8.15;2.95;;;;;;;4.63;74.72;100611.02;1736380;83;21067;-67
2023/02/14 08:20:51;;;;;;;7.50;3.37;;;;;;;4.67;74.72;100610.55;1736247;83;21027;-66
2023/02/14 08:23:21;;;;;;;5.25;1.90;;;;;;;4.68;74.52;100628.55;1736509;82;21540;-66
2023/02/14 08:25:51;;;;;;;4.70;1.90;;;;;;;4.68;74.17;100629.05;1736161;83;21723;-67
2023/02/14 08:28:20;;;;;;;4.08;1.80;;;;;;;4.72;73.99;100634.52;1736224;82;21044;-68
2023/02/14 08:30:53;;;;;;;7.80;2.02;;;;;;;4.83;73.99;100630.72;1736316;83;21028;-68
2023/02/14 08:33:24;;;;;;;4.45;1.77;;;;;;;4.87;73.18;100628.89;1736424;83;20991;-67
2023/02/14 08:35:52;;;;;;;3.50;1.98;;;;;;;4.90;73.07;100638.59;1736125;82;21447;-67
2023/02/14 08:38:21;;;;;;;5.10;1.65;;;;;;;4.90;72.47;100638.59;1736184;82;21102;-68
2023/02/14 08:40:50;;;;;;;3.58;1.55;;;;;;;4.86;72.19;100627.69;1736246;83;21209;-68
2023/02/14 08:43:19;;;;;;;4.20;1.55;;;;;;;4.82;71.92;100620.87;1736167;82;21065;-68
2023/02/14 08:45:52;;;;;;;5.65;2.20;;;;;;;4.80;71.98;100633.23;1736287;82;21059;-68
2023/02/14 08:48:39;;;;;;;8.80;3.17;;;;;;;4.81;71.82;100627.30;1736319;82;21044;-66
2023/02/14 08:51:11;;;;;;;10.90;3.87;;;;;;;4.82;71.62;100629.02;1736530;82;21060;-68
2023/02/14 08:53:40;;;;;;;11.33;4.67;;;;;;;4.82;71.63;100635.30;1710184;82;21093;-65
2023/02/14 08:56:12;;;;;;;10.80;3.80;;;;;;;4.82;71.71;100633.94;1705343;84;21478;-68
2023/02/14 08:58:42;;;;;;;6.25;2.02;;;;;;;4.85;71.88;100634.98;1704857;84;21072;-65
2023/02/14 09:01:14;;;;;;;3.45;1.40;;;;;;;4.84;70.79;100651.43;1740943;82;21059;-68
2023/02/14 09:03:44;;;;;;;5.87;1.98;;;;;;;4.85;70.61;100644.48;1702505;83;20983;-67
2023/02/14 09:06:15;;;;;;;4.50;1.60;;;;;;;4.81;70.00;100638.17;1744515;82;21051;-67
2023/02/14 09:08:44;;;;;;;6.35;2.42;;;;;;;4.82;70.07;100643.44;1745800;82;21008;-67
2023/02/14 09:11:19;;;;;;;6.92;1.80;;;;;;;4.83;70.15;100649.22;1740994;82;21054;-66
2023/02/14 09:13:48;;;;;;;5.08;1.70;;;;;;;4.85;69.53;100645.84;1700519;83;21482;-64
2023/02/14 09:16:19;;;;;;;3.87;1.40;;;;;;;4.89;70.55;100640.45;1740670;82;21114;-64
2023/02/14 09:18:49;;;;;;;5.25;1.65;;;;;;;4.94;69.94;100644.06;1703513;84;21481;-62
2023/02/14 09:21:22;;;;;;;4.53;1.42;;;;;;;4.96;69.49;100636.11;1694671;85;21066;-64
2023/02/14 09:23:53;;;;;;;5.50;1.40;;;;;;;4.96;68.71;100662.41;1644362;87;21116;-65
2023/02/14 09:26:24;;;;;;;6.53;1.50;;;;;;;4.92;67.95;100657.80;1643081;87;21044;-64
2023/02/14 09:28:54;;;;;;;4.08;1.50;;;;;;;4.90;67.78;100661.67;1643060;87;21067;-66
2023/02/14 09:31:24;;;;;;;6.78;1.55;;;;;;;4.87;68.08;100667.41;1621464;87;21460;-65
2023/02/14 09:33:53;;;;;;;14.63;2.27;;;;;;;4.86;68.16;100651.63;1642967;87;21181;-66
2023/02/14 09:39:10;;;;;;;12.60;1.85;;;;;;;4.83;68.12;100651.08;1595071;88;21129;-67
2023/02/14 09:42:02;;;;;;;6.60;1.60;;;;;;;4.83;68.31;100647.86;1671038;84;21071;-67
2023/02/14 09:44:50;;;;;;;9.80;1.90;;;;;;;4.84;68.28;100639.21;1709507;82;21007;-67
2023/02/14 09:47:43;;;;;;;17.15;2.75;;;;;;;4.84;68.12;100633.28;1709821;84;21031;-64
2023/02/14 09:50:36;;;;;;;12.25;2.25;;;;;;;4.84;67.77;100637.35;1722026;83;21022;-64
2023/02/14 09:53:33;;;;;;;9.90;1.87;;;;;;;4.85;67.75;100643.13;1721677;83;21094;-64
2023/02/14 09:56:25;;;;;;;10.30;2.00;;;;;;;4.83;67.00;100638.86;1721739;83;20994;-65
2023/02/14 09:59:12;;;;;;;13.53;1.90;;;;;;;4.82;66.91;100631.73;1721761;83;21272;-65
2023/02/14 10:01:55;;;;;;;8.28;1.47;;;;;;;4.83;66.95;100642.94;1714523;83;21054;-65
2023/02/14 10:04:41;;;;;;;14.00;2.00;;;;;;;4.87;67.13;100638.39;1684645;85;21054;-65
2023/02/14 10:07:30;;;;;;;6.92;1.90;;;;;;;4.89;66.88;100635.02;1712456;83;21047;-66
2023/02/14 10:10:22;;;;;;;18.12;3.22;;;;;;;4.90;66.91;100627.73;1718319;83;21474;-65
2023/02/14 10:13:14;;;;;;;3.55;1.40;;;;;;;4.91;66.86;100622.65;1721679;82;21027;-65
2023/02/14 10:15:47;;;;;;;15.55;3.17;;;;;;;4.93;66.97;100639.64;1721317;82;21086;-64
2023/02/14 10:18:31;;;;;;;12.50;2.47;;;;;;;4.99;66.89;100644.44;1721597;83;21125;-65
2023/02/14 10:21:00;;;;;;;8.55;2.10;;;;;;;5.03;66.58;100633.62;1719048;83;21087;-66
2023/02/14 10:23:39;;;;;;;22.77;2.58;;;;;;;5.08;66.09;100635.36;1721776;83;21070;-65
2023/02/14 10:26:18;;;;;;;7.53;1.85;;;;;;;5.11;65.84;100624.19;1721555;83;21082;-67
2023/02/14 10:28:48;;;;;;;9.13;1.80;;;;;;;5.14;65.15;100623.87;1721726;83;21014;-66
2023/02/14 10:31:21;;;;;;;6.60;1.52;;;;;;;5.14;65.09;100617.08;1721675;83;21536;-66
2023/02/14 10:33:56;;;;;;;9.03;1.87;;;;;;;5.16;64.76;100610.98;1721756;83;21019;-65
2023/02/14 10:36:54;;;;;;;31.68;3.55;;;;;;;5.18;64.57;100619.83;1721794;83;21019;-65
2023/02/14 10:39:34;;;;;;;8.40;2.17;;;;;;;5.22;64.15;100617.69;1677714;85;21047;-66
2023/02/14 10:42:21;;;;;;;13.75;2.10;;;;;;;5.22;62.69;100615.81;1684799;85;21082;-66
2023/02/14 10:45:17;;;;;;;8.33;1.87;;;;;;;5.23;63.19;100616.16;1721784;83;21482;-67
2023/02/14 10:47:58;;;;;;;23.07;2.90;;;;;;;5.26;62.86;100612.28;1692060;83;21063;-65
2023/02/14 10:50:48;;;;;;;5.87;1.52;;;;;;;5.26;63.07;100613.13;1700464;84;21119;-66
2023/02/14 10:54:08;;;;;;;22.95;2.92;;;;;;;5.29;63.02;100610.09;1681619;85;21663;-66
2023/02/14 10:56:59;;;;;;;12.18;1.98;;;;;;;5.33;62.39;100617.42;1682010;85;21023;-65
2023/02/14 10:59:47;;;;;;;5.28;1.55;;;;;;;5.35;61.83;100610.82;1681557;85;21043;-65
2023/02/14 11:02:21;;;;;;;13.55;2.08;;;;;;;5.36;61.47;100603.02;1681685;85;21471;-65
2023/02/14 11:04:51;;;;;;;6.40;1.30;;;;;;;5.36;61.54;100607.59;1681285;85;21586;-66
2023/02/14 11:07:20;;;;;;;12.73;1.80;;;;;;;5.35;61.61;100616.25;1680961;85;21134;-66
2023/02/14 11:09:50;;;;;;;6.55;1.40;;;;;;;5.34;61.46;100602.33;1633380;87;21103;-66
2023/02/14 11:12:36;;;;;;;6.10;1.30;;;;;;;5.35;61.07;100603.17;1616746;88;21107;-66
2023/02/14 11:15:32;;;;;;;8.98;1.55;;;;;;;5.38;61.11;100612.36;1653359;86;21090;-66
2023/02/14 11:18:17;;;;;;;25.52;2.50;;;;;;;5.43;61.03;100609.17;1617461;87;21249;-66
2023/02/14 11:21:06;;;;;;;6.87;1.12;;;;;;;5.47;60.52;100588.81;1668258;86;21046;-67
2023/02/14 11:23:46;;;;;;;16.77;2.85;;;;;;;5.47;59.27;100604.62;1668706;86;21500;-66
2023/02/14 11:26:29;;;;;;;6.87;1.87;;;;;;;5.47;59.70;100603.26;1668463;86;21478;-67
2023/02/14 11:29:05;;;;;;;27.70;2.90;;;;;;;5.50;59.79;100596.14;1687804;85;21100;-67
2023/02/14 11:31:35;;;;;;;10.05;2.25;;;;;;;5.53;59.87;100613.99;1690156;84;21048;-66
2023/02/14 11:34:24;;;;;;;16.50;2.00;;;;;;;5.54;59.41;100602.97;1690321;85;21517;-68
2023/02/14 11:36:53;;;;;;;14.80;2.08;;;;;;;5.55;59.64;100599.23;1690220;84;21059;-68
2023/02/14 11:39:33;;;;;;;13.25;2.37;;;;;;;5.59;59.95;100590.25;1690605;84;21087;-70
2023/02/14 11:42:04;;;;;;;5.60;1.30;;;;;;;5.61;59.70;100597.73;1690112;85;21103;-69
2023/02/14 11:44:36;;;;;;;13.25;2.20;;;;;;;5.62;59.15;100596.72;1690161;84;21083;-65
2023/02/14 11:47:27;;;;;;;7.00;1.65;;;;;;;5.60;58.93;100604.19;1690346;84;21036;-68
2023/02/14 11:50:20;;;;;;;19.30;2.52;;;;;;;5.59;57.91;100610.64;1690345;85;21424;-66
2023/02/14 11:52:53;;;;;;;10.58;1.72;;;;;;;5.55;57.67;100615.54;1690152;84;21546;-66
2023/02/14 11:55:28;;;;;;;5.20;1.20;;;;;;;5.51;57.15;100604.64;1672956;85;21052;-66
2023/02/14 11:57:57;;;;;;;13.90;2.05;;;;;;;5.48;57.04;100614.98;1690041;85;21068;-67
2023/02/14 12:00:28;;;;;;;11.65;2.12;;;;;;;5.45;56.83;100600.36;1690107;85;21475;-65
2023/02/14 12:03:04;;;;;;;9.80;2.40;;;;;;;5.44;57.21;100613.09;1690235;85;21090;-67
2023/02/14 12:05:38;;;;;;;18.45;1.98;;;;;;;5.44;56.78;100609.52;1690067;85;21483;-66
2023/02/14 12:08:09;;;;;;;6.33;1.82;;;;;;;5.46;57.59;100611.57;1687582;84;21460;-67
2023/02/14 12:10:39;;;;;;;9.03;2.00;;;;;;;5.51;57.33;100614.66;1690208;85;21099;-65
2023/02/14 12:13:13;;;;;;;30.05;3.60;;;;;;;5.52;57.24;100615.86;1690431;84;21672;-65
2023/02/14 12:15:50;;;;;;;3.92;1.25;;;;;;;5.50;56.31;100604.30;1690503;84;21480;-67
2023/02/14 12:18:40;;;;;;;;;;;;;;;5.46;56.28;100606.14;1675488;85;21056;-67
2023/02/14 12:21:45;;;;;;;6.50;1.32;;;;;;;5.41;55.63;100603.39;1690272;85;20179;-66
2023/02/14 12:24:41;;;;;;;3.70;0.98;;;;;;;5.37;56.33;100605.23;1690508;83;21095;-67
2023/02/14 12:27:29;;;;;;;5.33;1.35;;;;;;;5.35;56.53;100602.67;1689988;84;21067;-66
2023/02/14 12:30:04;;;;;;;12.33;1.85;;;;;;;5.34;56.87;100604.19;1669555;84;21068;-66
2023/02/14 12:32:35;;;;;;;7.78;1.47;;;;;;;5.35;56.85;100605.39;1669143;86;21046;-64
2023/02/14 12:35:12;;;;;;;9.13;1.35;;;;;;;5.34;56.49;100610.47;1718933;83;21088;-65